Time;durP1;ratioP1;P1;durP2;ratioP2;P2;SDS_P1;SDS_P2;PMS_P1;PMS_P2;Temp;Humidity;BMP_temperature;BMP_pressure;BME280_temperature;BME280_humidity;BME280_pressure;Samples;Min_cycle;Max_cycle;Signal;HPM_P1;HPM_P2
2022/11/22 00:01:05;;;;;;;18.77;7.28;;;;;;;7.02;100.00;99056.03;2615704;36;20049;-52
2022/11/22 00:03:36;;;;;;;17.52;7.80;;;;;;;7.17;100.00;99049.09;2616629;36;20022;-49
2022/11/22 00:06:04;;;;;;;21.63;8.00;;;;;;;7.09;100.00;99037.53;2616216;36;20023;-48
2022/11/22 00:08:33;;;;;;;15.98;9.13;;;;;;;7.03;100.00;99038.16;2616406;36;20042;-49
2022/11/22 00:11:01;;;;;;;17.45;8.80;;;;;;;7.00;100.00;99032.13;2614836;36;20033;-55
2022/11/22 00:13:29;;;;;;;15.68;8.23;;;;;;;7.10;100.00;99033.88;2615613;36;20038;-52
2022/11/22 00:16:01;;;;;;;20.98;8.60;;;;;;;7.13;100.00;99047.75;2613849;36;20023;-57
2022/11/22 00:18:30;;;;;;;17.95;8.52;;;;;;;7.15;100.00;99055.59;2616208;36;20042;-53
2022/11/22 00:21:07;;;;;;;19.23;8.50;;;;;;;6.97;100.00;99053.84;2615475;36;20038;-50
2022/11/22 00:23:35;;;;;;;18.42;8.45;;;;;;;7.12;100.00;99051.41;2616086;36;20134;-49
2022/11/22 00:26:05;;;;;;;19.17;8.48;;;;;;;7.16;100.00;99051.94;2615811;36;20034;-50
2022/11/22 00:28:34;;;;;;;19.13;8.38;;;;;;;7.20;100.00;99053.31;2615791;36;20033;-54
2022/11/22 00:31:02;;;;;;;13.50;7.40;;;;;;;7.15;100.00;99044.91;2614288;36;20443;-49
2022/11/22 00:33:30;;;;;;;16.58;8.20;;;;;;;7.28;100.00;99049.84;2613049;36;20035;-52
2022/11/22 00:36:01;;;;;;;17.25;7.45;;;;;;;7.15;100.00;99058.28;2612656;36;20031;-53
2022/11/22 00:38:31;;;;;;;17.00;8.50;;;;;;;7.37;100.00;99054.22;2613100;36;20038;-49
2022/11/22 00:40:59;;;;;;;16.55;7.03;;;;;;;7.30;100.00;99047.81;2614259;36;20030;-48
2022/11/22 00:43:28;;;;;;;14.13;7.55;;;;;;;7.28;100.00;99039.13;2615171;36;20038;-50
2022/11/22 00:45:56;;;;;;;18.20;8.30;;;;;;;7.29;100.00;99036.28;2615341;36;20030;-51
2022/11/22 00:48:25;;;;;;;16.33;7.50;;;;;;;7.41;100.00;99033.34;2615937;36;20440;-53
2022/11/22 00:50:54;;;;;;;18.40;7.22;;;;;;;7.21;100.00;99030.06;2615869;36;20397;-49
2022/11/22 00:53:25;;;;;;;17.23;7.35;;;;;;;7.05;100.00;99034.31;2616289;36;20034;-56
2022/11/22 00:55:54;;;;;;;17.15;7.28;;;;;;;7.23;100.00;99031.59;2615057;36;20022;-49
2022/11/22 00:58:22;;;;;;;15.27;7.65;;;;;;;7.26;100.00;99036.63;2616387;31;20039;-50
2022/11/22 01:00:51;;;;;;;22.38;8.07;;;;;;;7.25;100.00;99018.88;2615678;36;20030;-53
2022/11/22 01:03:19;;;;;;;20.48;8.60;;;;;;;7.18;100.00;99025.84;2615979;36;20034;-54
2022/11/22 01:05:48;;;;;;;13.73;8.18;;;;;;;7.28;100.00;99023.91;2614905;36;20046;-50
2022/11/22 01:08:19;;;;;;;16.15;7.63;;;;;;;7.35;100.00;99037.50;2616375;36;20038;-49
2022/11/22 01:10:56;;;;;;;13.93;7.47;;;;;;;7.29;100.00;99033.63;2611783;36;20033;-51
2022/11/22 01:13:24;;;;;;;22.02;7.72;;;;;;;7.33;100.00;99028.78;2616281;31;20046;-51
2022/11/22 01:15:52;;;;;;;18.90;7.72;;;;;;;7.37;100.00;99035.47;2615084;36;20039;-52
2022/11/22 01:18:21;;;;;;;21.25;8.50;;;;;;;7.29;100.00;99038.97;2612924;36;20030;-51
2022/11/22 01:20:49;;;;;;;20.65;7.90;;;;;;;7.33;100.00;99037.66;2615572;36;20038;-50
2022/11/22 01:23:17;;;;;;;15.48;8.45;;;;;;;7.33;100.00;99043.00;2615476;36;20068;-50
2022/11/22 01:25:46;;;;;;;20.48;8.25;;;;;;;7.34;100.00;99033.97;2615230;36;20057;-52
2022/11/22 01:28:17;;;;;;;18.45;8.93;;;;;;;7.30;100.00;99037.97;2614677;36;20023;-54
2022/11/22 01:30:45;;;;;;;20.88;9.18;;;;;;;7.40;100.00;99031.66;2614659;36;20488;-52
2022/11/22 01:33:14;;;;;;;20.73;10.40;;;;;;;7.29;100.00;99035.47;2615341;36;20042;-56
2022/11/22 01:35:42;;;;;;;22.00;9.38;;;;;;;7.28;100.00;99033.78;2616260;36;20054;-52
2022/11/22 01:38:10;;;;;;;20.05;9.70;;;;;;;7.17;100.00;99037.59;2613998;36;20670;-50
2022/11/22 01:40:39;;;;;;;27.70;10.95;;;;;;;7.49;100.00;99042.25;2613801;36;20056;-52
2022/11/22 01:43:16;;;;;;;24.60;10.77;;;;;;;7.46;100.00;99031.84;2613978;36;20038;-51
2022/11/22 01:45:50;;;;;;;19.55;10.15;;;;;;;7.32;100.00;99035.16;2614954;36;20029;-50
2022/11/22 01:48:27;;;;;;;21.15;11.25;;;;;;;7.57;100.00;99037.91;2615031;31;20535;-51
2022/11/22 01:51:00;;;;;;;21.70;10.15;;;;;;;7.50;100.00;99037.72;2615928;31;20110;-56
2022/11/22 01:53:33;;;;;;;20.73;10.57;;;;;;;7.50;100.00;99033.19;2615233;36;20027;-54
2022/11/22 01:56:06;;;;;;;21.42;11.13;;;;;;;7.58;100.00;99036.91;2614703;36;20638;-50
2022/11/22 01:58:37;;;;;;;27.10;11.07;;;;;;;7.59;100.00;99039.41;2616046;31;20061;-56
2022/11/22 02:01:09;;;;;;;26.38;11.63;;;;;;;7.59;100.00;99038.59;2614933;36;20030;-51
2022/11/22 02:03:40;;;;;;;28.60;12.57;;;;;;;7.69;100.00;99039.31;2615360;36;20578;-57
2022/11/22 02:06:09;;;;;;;41.95;14.15;;;;;;;7.65;100.00;99030.72;2615416;36;20034;-53
2022/11/22 02:08:43;;;;;;;30.70;12.40;;;;;;;7.74;100.00;99036.13;2615275;36;20038;-55
2022/11/22 02:11:14;;;;;;;24.52;12.15;;;;;;;7.63;100.00;99042.63;2614820;36;20046;-54
2022/11/22 02:13:45;;;;;;;26.73;11.90;;;;;;;7.69;100.00;99034.78;2616375;36;20419;-52
2022/11/22 02:16:16;;;;;;;24.15;10.20;;;;;;;7.62;100.00;99041.78;2614046;36;20404;-55
2022/11/22 02:18:44;;;;;;;23.40;11.25;;;;;;;7.80;100.00;99051.53;2613403;36;20030;-55
2022/11/22 02:21:13;;;;;;;27.85;12.45;;;;;;;7.76;100.00;99047.50;2615171;36;20361;-54
2022/11/22 02:23:52;;;;;;;25.85;11.82;;;;;;;7.85;100.00;99057.25;2615694;36;20022;-52
2022/11/22 02:26:27;;;;;;;27.27;12.40;;;;;;;7.96;100.00;99042.72;2614430;36;20038;-53
2022/11/22 02:29:01;;;;;;;19.17;10.48;;;;;;;7.88;100.00;99062.28;2615439;36;20031;-52
2022/11/22 02:31:38;;;;;;;21.23;10.50;;;;;;;7.89;100.00;99054.09;2615175;36;20031;-52
2022/11/22 02:34:07;;;;;;;23.77;9.57;;;;;;;7.77;100.00;99055.38;2614821;36;20035;-52
2022/11/22 02:36:40;;;;;;;21.60;10.52;;;;;;;7.69;100.00;99063.41;2614691;36;20035;-52
2022/11/22 02:39:10;;;;;;;24.70;10.00;;;;;;;7.74;100.00;99054.88;2614118;36;20129;-54
2022/11/22 02:41:41;;;;;;;23.23;9.88;;;;;;;7.79;100.00;99057.88;2615458;36;20018;-53
2022/11/22 02:44:12;;;;;;;24.75;11.57;;;;;;;7.78;100.00;99058.91;2614981;36;20056;-54
2022/11/22 02:46:48;;;;;;;24.58;10.25;;;;;;;7.85;100.00;99058.09;2615086;36;20026;-56
2022/11/22 02:49:21;;;;;;;22.40;9.43;;;;;;;7.69;100.00;99066.91;2615979;31;20019;-55
2022/11/22 02:51:50;;;;;;;20.42;8.15;;;;;;;7.59;100.00;99062.69;2615863;36;20031;-56
2022/11/22 02:54:19;;;;;;;19.92;8.90;;;;;;;7.63;100.00;99059.53;2616166;36;20038;-54
2022/11/22 02:56:50;;;;;;;18.02;8.45;;;;;;;7.58;100.00;99055.66;2615293;36;20478;-55
2022/11/22 02:59:18;;;;;;;23.60;8.05;;;;;;;7.73;100.00;99064.75;2615478;36;20038;-57
2022/11/22 03:01:48;;;;;;;17.15;8.02;;;;;;;7.51;100.00;99060.81;2616465;36;20431;-50
2022/11/22 03:04:23;;;;;;;17.95;7.85;;;;;;;7.53;100.00;99065.00;2616232;36;20042;-52
2022/11/22 03:06:52;;;;;;;15.75;7.90;;;;;;;7.67;100.00;99060.03;2615629;36;20085;-52
2022/11/22 03:09:21;;;;;;;14.77;7.50;;;;;;;7.52;100.00;99059.81;2616589;36;20109;-54
2022/11/22 03:11:52;;;;;;;16.43;7.33;;;;;;;7.52;100.00;99063.34;2616203;31;20057;-54
2022/11/22 03:14:20;;;;;;;18.20;6.88;;;;;;;7.57;100.00;99062.00;2616597;36;20425;-54
2022/11/22 03:16:49;;;;;;;15.95;7.57;;;;;;;7.45;100.00;99062.31;2615985;36;20031;-52
2022/11/22 03:19:18;;;;;;;16.95;7.32;;;;;;;7.43;100.00;99060.78;2616486;36;20018;-55
2022/11/22 03:21:46;;;;;;;16.17;7.70;;;;;;;7.27;100.00;99064.19;2616289;36;20079;-53
2022/11/22 03:24:15;;;;;;;17.98;7.38;;;;;;;7.34;100.00;99065.25;2615991;31;20034;-51
2022/11/22 03:26:47;;;;;;;15.15;6.45;;;;;;;7.37;100.00;99070.28;2615586;36;20034;-52
2022/11/22 03:29:18;;;;;;;12.73;6.60;;;;;;;7.24;100.00;99085.94;2616766;36;20034;-52
2022/11/22 03:31:47;;;;;;;18.38;6.85;;;;;;;7.33;100.00;99085.81;2617047;36;20034;-54
2022/11/22 03:34:15;;;;;;;21.98;7.53;;;;;;;7.24;100.00;99083.25;2662212;36;20030;-55
2022/11/22 03:36:44;;;;;;;15.70;6.60;;;;;;;7.22;100.00;99091.44;2616543;36;20038;-49
2022/11/22 03:39:12;;;;;;;20.95;6.57;;;;;;;7.18;100.00;99092.75;2615769;36;20584;-50
2022/11/22 03:41:40;;;;;;;15.18;6.40;;;;;;;7.17;100.00;99093.78;2615137;36;20045;-55
2022/11/22 03:44:09;;;;;;;17.08;7.20;;;;;;;7.08;100.00;99098.22;2615638;31;20539;-55
2022/11/22 03:46:40;;;;;;;15.57;6.70;;;;;;;7.11;100.00;99100.59;2615969;36;20031;-56
2022/11/22 03:49:08;;;;;;;17.50;6.88;;;;;;;7.12;100.00;99098.72;2615213;36;20049;-55
2022/11/22 03:51:36;;;;;;;13.93;5.88;;;;;;;6.98;100.00;99098.31;2615012;36;20057;-55
2022/11/22 03:54:05;;;;;;;18.13;5.88;;;;;;;7.03;100.00;99099.69;2615115;36;20035;-59
2022/11/22 03:56:33;;;;;;;11.67;4.80;;;;;;;6.99;100.00;99100.00;2615165;36;20539;-54
2022/11/22 03:59:01;;;;;;;19.83;5.85;;;;;;;6.90;100.00;99105.44;2614804;36;20739;-55
2022/11/22 04:01:30;;;;;;;9.13;4.30;;;;;;;6.94;100.00;99106.81;2615919;36;20031;-52
2022/11/22 04:04:00;;;;;;;23.42;5.03;;;;;;;6.97;100.00;99101.16;2615761;36;20049;-54
2022/11/22 04:06:29;;;;;;;14.93;5.82;;;;;;;6.98;100.00;99108.19;2615564;31;20037;-53
2022/11/22 04:08:57;;;;;;;13.10;4.97;;;;;;;6.93;100.00;99105.13;2614983;36;20041;-55
2022/11/22 04:11:25;;;;;;;15.95;4.82;;;;;;;6.98;100.00;99108.19;2615408;36;20038;-53
2022/11/22 04:16:34;;;;;;;13.80;4.20;;;;;;;6.77;100.00;99122.72;2616132;36;20026;-54
2022/11/22 04:19:05;;;;;;;13.55;5.10;;;;;;;6.86;100.00;99123.63;2615029;36;20038;-53
2022/11/22 04:21:34;;;;;;;13.90;3.97;;;;;;;6.83;100.00;99129.28;2615530;36;20034;-48
2022/11/22 04:26:43;;;;;;;11.25;4.45;;;;;;;6.88;100.00;99124.31;2614809;36;20046;-53
2022/11/22 04:29:12;;;;;;;15.50;4.53;;;;;;;6.72;100.00;99135.72;2632860;36;20038;-54
2022/11/22 04:34:23;;;;;;;20.90;3.95;;;;;;;6.62;100.00;99130.44;2616536;31;20038;-53
2022/11/22 04:36:52;;;;;;;14.98;3.80;;;;;;;6.67;100.00;99127.31;2615318;36;20031;-54
2022/11/22 04:39:20;;;;;;;13.40;3.67;;;;;;;6.76;100.00;99128.25;2616123;36;20019;-53
2022/11/22 04:44:39;;;;;;;12.85;4.05;;;;;;;6.76;100.00;99122.88;2615022;36;20471;-53
2022/11/22 04:44:40;;;;;;;11.75;3.78;;;;;;;6.52;100.00;99129.66;2616083;31;20142;-57
2022/11/22 04:47:09;;;;;;;11.05;4.80;;;;;;;6.50;100.00;99131.66;2614530;36;20038;-50
2022/11/22 04:49:40;;;;;;;11.65;3.08;;;;;;;6.56;100.00;99127.53;2616730;36;20539;-51
2022/11/22 04:54:54;;;;;;;14.32;3.13;;;;;;;6.65;100.00;99134.63;2614954;36;20034;-53
2022/11/22 04:57:22;;;;;;;6.50;2.80;;;;;;;6.63;100.00;99136.63;2615061;36;20539;-54
2022/11/22 04:59:51;;;;;;;12.57;3.35;;;;;;;6.38;100.00;99147.09;2614443;36;20551;-51
2022/11/22 05:02:19;;;;;;;15.93;3.40;;;;;;;6.21;100.00;99139.88;2614927;36;20042;-53
2022/11/22 05:04:50;;;;;;;8.73;3.00;;;;;;;6.16;100.00;99132.31;2615259;31;20041;-55
2022/11/22 05:07:18;;;;;;;12.75;3.10;;;;;;;6.12;100.00;99144.28;2614301;36;20022;-59
2022/11/22 05:09:46;;;;;;;10.05;2.90;;;;;;;6.21;100.00;99153.25;2615446;36;20035;-56
2022/11/22 05:12:15;;;;;;;11.63;2.80;;;;;;;6.21;100.00;99140.72;2614751;36;20558;-54
2022/11/22 05:14:43;;;;;;;12.48;3.88;;;;;;;6.09;100.00;99145.44;2614833;36;20053;-53
2022/11/22 05:17:11;;;;;;;11.82;4.13;;;;;;;6.14;100.00;99145.84;2615514;36;20034;-53
2022/11/22 05:19:39;;;;;;;14.98;4.28;;;;;;;6.05;100.00;99154.75;2615612;36;20022;-50
2022/11/22 05:22:10;;;;;;;13.27;2.92;;;;;;;6.10;100.00;99147.13;2615931;36;20033;-54
2022/11/22 05:24:36;;;;;;;13.98;2.72;;;;;;;6.12;100.00;99150.50;2615792;36;20034;-55
2022/11/22 05:27:05;;;;;;;18.60;3.75;;;;;;;6.15;100.00;99144.00;2614378;36;20150;-50
2022/11/22 05:29:33;;;;;;;11.07;2.90;;;;;;;6.10;100.00;99146.28;2615673;36;20030;-49
2022/11/22 05:32:02;;;;;;;12.55;2.67;;;;;;;5.91;100.00;99136.53;2615170;36;20287;-51
2022/11/22 05:34:30;;;;;;;;;;;;;;;6.13;100.00;99146.00;2615994;36;20046;-50
2022/11/22 05:36:59;;;;;;;10.20;2.90;;;;;;;5.97;100.00;99150.13;2615784;36;19951;-52
2022/11/22 05:39:29;;;;;;;15.23;3.50;;;;;;;5.94;100.00;99155.75;2616396;36;20022;-56
2022/11/22 05:41:58;;;;;;;9.23;2.72;;;;;;;5.93;100.00;99154.09;2615141;36;20073;-51
2022/11/22 05:44:26;;;;;;;11.43;2.85;;;;;;;6.13;100.00;99154.81;2615388;36;20444;-51
2022/11/22 05:46:55;;;;;;;9.15;2.90;;;;;;;5.94;100.00;99163.75;2614431;36;20182;-56
2022/11/22 05:49:23;;;;;;;6.78;2.30;;;;;;;5.95;100.00;99164.63;2615005;36;20039;-51
2022/11/22 05:51:53;;;;;;;12.05;2.88;;;;;;;5.85;100.00;99156.63;2615334;36;20050;-52
2022/11/22 05:54:21;;;;;;;10.15;3.03;;;;;;;6.01;100.00;99158.69;2615652;31;20420;-50
2022/11/22 05:56:52;;;;;;;10.43;2.50;;;;;;;5.95;100.00;99148.59;2614263;36;20054;-57
2022/11/22 05:59:20;;;;;;;11.88;3.50;;;;;;;5.83;100.00;99149.75;2614760;36;20034;-53
2022/11/22 06:01:48;;;;;;;8.80;3.00;;;;;;;5.93;100.00;99151.41;2615340;31;20037;-52
2022/11/22 06:04:17;;;;;;;8.85;3.20;;;;;;;5.92;100.00;99148.88;2614664;36;20034;-53
2022/11/22 06:06:48;;;;;;;13.70;3.15;;;;;;;5.71;100.00;99152.63;2615339;36;20586;-53
2022/11/22 06:09:16;;;;;;;9.75;2.92;;;;;;;5.78;100.00;99152.88;2614793;36;20039;-51
2022/11/22 06:11:44;;;;;;;13.13;3.60;;;;;;;5.59;100.00;99149.31;2613773;36;20435;-55
2022/11/22 06:14:15;;;;;;;11.93;2.55;;;;;;;5.78;100.00;99152.88;2614533;36;20691;-53
2022/11/22 06:16:44;;;;;;;11.75;2.13;;;;;;;5.69;100.00;99151.09;2615560;36;20019;-57
2022/11/22 06:19:12;;;;;;;17.80;3.22;;;;;;;5.61;100.00;99151.84;2615412;36;20038;-51
2022/11/22 06:21:40;;;;;;;7.57;2.47;;;;;;;5.74;100.00;99157.69;2613588;31;20027;-51
2022/11/22 06:24:10;;;;;;;6.30;2.63;;;;;;;5.67;100.00;99161.91;2614452;36;20034;-50
2022/11/22 06:26:38;;;;;;;;;;;;;;;5.75;100.00;99159.34;2615380;36;20027;-50
2022/11/22 06:29:07;;;;;;;11.73;2.55;;;;;;;5.81;100.00;99160.59;2616828;36;19958;-54
2022/11/22 06:31:38;;;;;;;9.17;2.77;;;;;;;5.84;100.00;99162.13;2616018;36;20873;-51
2022/11/22 06:34:06;;;;;;;20.45;2.67;;;;;;;5.97;100.00;99168.00;2615132;31;20042;-54
2022/11/22 06:36:36;;;;;;;19.87;2.70;;;;;;;5.83;100.00;99161.31;2617420;31;20421;-59
2022/11/22 06:39:05;;;;;;;12.82;3.30;;;;;;;5.96;100.00;99167.13;2616399;36;20266;-51
2022/11/22 06:41:35;;;;;;;13.70;2.75;;;;;;;6.04;100.00;99165.59;2615581;36;20034;-54
2022/11/22 06:44:06;;;;;;;9.68;3.13;;;;;;;5.87;100.00;99165.31;2615168;36;20069;-54
2022/11/22 06:46:38;;;;;;;13.07;2.67;;;;;;;6.04;100.00;99160.25;2614946;36;20018;-49
2022/11/22 06:49:06;;;;;;;13.40;2.72;;;;;;;6.12;100.00;99171.00;2615929;31;20041;-56
2022/11/22 06:51:35;;;;;;;11.50;2.88;;;;;;;5.97;100.00;99168.81;2616525;36;20029;-51
2022/11/22 06:54:03;;;;;;;12.17;2.57;;;;;;;6.05;100.00;99170.78;2615873;36;20023;-50
2022/11/22 06:56:37;;;;;;;12.00;2.88;;;;;;;5.93;100.00;99172.78;2615273;36;20022;-50
2022/11/22 06:59:07;;;;;;;11.35;2.70;;;;;;;6.04;100.00;99176.28;2615785;36;20035;-51
2022/11/22 07:01:38;;;;;;;12.75;3.17;;;;;;;5.89;100.00;99176.72;2614346;36;20459;-51
2022/11/22 07:04:07;;;;;;;10.68;2.85;;;;;;;6.07;100.00;99175.97;2615309;36;20034;-51
2022/11/22 07:06:37;;;;;;;9.52;3.05;;;;;;;6.19;100.00;99180.09;2615008;36;20429;-56
2022/11/22 07:09:08;;;;;;;10.23;3.28;;;;;;;6.20;100.00;99179.13;2614231;36;20022;-52
2022/11/22 07:11:36;;;;;;;11.00;3.20;;;;;;;6.25;100.00;99176.00;2614374;31;20031;-53
2022/11/22 07:14:06;;;;;;;11.05;3.72;;;;;;;6.20;100.00;99178.25;2614331;36;20061;-49
2022/11/22 07:16:38;;;;;;;13.85;3.65;;;;;;;6.19;100.00;99176.59;2613813;36;20038;-51
2022/11/22 07:19:07;;;;;;;14.75;3.65;;;;;;;6.14;100.00;99185.06;2614124;36;20022;-50
2022/11/22 07:21:36;;;;;;;12.73;4.07;;;;;;;6.08;100.00;99193.66;2614665;36;20026;-55
2022/11/22 07:24:07;;;;;;;9.15;3.67;;;;;;;6.08;100.00;99196.31;2614907;36;20042;-52
2022/11/22 07:26:35;;;;;;;10.50;3.15;;;;;;;6.26;100.00;99201.75;2614985;36;20022;-58
2022/11/22 07:29:03;;;;;;;9.30;3.40;;;;;;;6.24;100.00;99196.53;2615694;36;20030;-53
2022/11/22 07:31:33;;;;;;;15.20;3.50;;;;;;;6.08;100.00;99196.31;2613467;36;20041;-51
2022/11/22 07:34:04;;;;;;;12.80;2.90;;;;;;;6.12;100.00;99198.59;2613351;31;20526;-53
2022/11/22 07:36:32;;;;;;;9.93;3.80;;;;;;;6.04;100.00;99208.31;2611659;36;20541;-55
2022/11/22 07:39:01;;;;;;;8.18;3.28;;;;;;;5.92;100.00;99218.31;2612717;36;20022;-53
2022/11/22 07:41:29;;;;;;;7.38;3.00;;;;;;;6.13;100.00;99220.78;2613948;31;20035;-54
2022/11/22 07:43:57;;;;;;;15.23;4.60;;;;;;;6.01;100.00;99221.94;2613540;36;20026;-55
2022/11/22 07:46:28;;;;;;;12.55;3.75;;;;;;;6.01;100.00;99221.94;2611011;36;20429;-51
2022/11/22 07:48:56;;;;;;;10.85;3.58;;;;;;;6.13;100.00;99223.44;2603956;31;20153;-58
2022/11/22 07:51:28;;;;;;;13.10;4.25;;;;;;;6.21;100.00;99223.53;2611007;36;20582;-55
2022/11/22 07:53:57;;;;;;;10.05;3.88;;;;;;;6.40;100.00;99222.59;2611269;36;20038;-52
2022/11/22 07:56:25;;;;;;;12.18;4.32;;;;;;;6.29;100.00;99220.97;2611515;36;20093;-50
2022/11/22 07:58:54;;;;;;;11.23;4.20;;;;;;;6.35;100.00;99216.88;2613624;36;20038;-52
2022/11/22 08:01:22;;;;;;;15.43;3.97;;;;;;;6.43;100.00;99221.47;2611405;36;20323;-57
2022/11/22 08:03:50;;;;;;;22.87;6.00;;;;;;;6.46;100.00;99218.47;2614571;36;20030;-58
2022/11/22 08:06:19;;;;;;;13.35;4.93;;;;;;;6.61;100.00;99227.69;2613212;36;20566;-51
2022/11/22 08:08:50;;;;;;;12.65;4.72;;;;;;;6.46;100.00;99215.81;2615162;36;20431;-54
2022/11/22 08:11:18;;;;;;;19.75;4.72;;;;;;;6.30;100.00;99217.31;2613022;36;20034;-53
2022/11/22 08:13:46;;;;;;;18.83;5.32;;;;;;;6.45;100.00;99219.50;2614730;31;20031;-50
2022/11/22 08:16:17;;;;;;;11.82;5.38;;;;;;;6.45;100.00;99228.34;2614262;36;20054;-53
2022/11/22 08:18:49;;;;;;;11.95;4.30;;;;;;;6.39;100.00;99228.09;2615072;31;20401;-50
2022/11/22 08:21:19;;;;;;;15.27;4.22;;;;;;;6.48;100.00;99232.56;2614118;36;20697;-52
2022/11/22 08:23:50;;;;;;;10.70;4.07;;;;;;;6.58;100.00;99229.81;2614144;36;20629;-54
2022/11/22 08:26:20;;;;;;;12.82;4.35;;;;;;;6.60;100.00;99223.31;2613966;36;20038;-57
2022/11/22 08:28:48;;;;;;;16.35;5.40;;;;;;;6.57;100.00;99226.28;2614838;36;20042;-54
2022/11/22 08:31:19;;;;;;;15.02;5.07;;;;;;;6.57;100.00;99223.63;2611559;36;20417;-55
2022/11/22 08:33:47;;;;;;;15.00;4.55;;;;;;;6.39;100.00;99220.94;2611747;31;20134;-54
2022/11/22 08:36:16;;;;;;;9.10;4.25;;;;;;;6.51;100.00;99228.72;2611019;31;20041;-52
2022/11/22 08:38:44;;;;;;;6.60;4.03;;;;;;;6.43;100.00;99219.66;2611198;36;20054;-56
2022/11/22 08:41:15;;;;;;;9.43;3.60;;;;;;;6.47;100.00;99228.19;2612618;31;20035;-54
2022/11/22 08:43:43;;;;;;;13.60;4.63;;;;;;;6.47;100.00;99228.19;2610657;36;20034;-59
2022/11/22 08:46:12;;;;;;;12.23;4.00;;;;;;;6.58;100.00;99236.00;2611265;36;20038;-50
2022/11/22 08:48:40;;;;;;;13.75;4.53;;;;;;;6.50;100.00;99249.28;2605253;36;20031;-52
2022/11/22 08:51:10;;;;;;;11.20;3.75;;;;;;;6.41;100.00;99239.47;2610595;36;20170;-58
2022/11/22 08:53:40;;;;;;;6.45;3.22;;;;;;;6.59;100.00;99243.00;2611225;36;20030;-52
2022/11/22 08:56:11;;;;;;;12.00;3.60;;;;;;;6.52;100.00;99239.25;2605669;36;20038;-54
2022/11/22 08:58:43;;;;;;;19.83;4.75;;;;;;;6.76;100.00;99243.22;2610121;31;20488;-54
2022/11/22 09:01:14;;;;;;;13.43;4.45;;;;;;;6.74;100.00;99242.50;2607747;36;20038;-54
2022/11/22 09:03:43;;;;;;;12.52;4.55;;;;;;;6.55;100.00;99249.69;2612343;36;20034;-57
2022/11/22 09:06:14;;;;;;;12.00;4.03;;;;;;;6.63;100.00;99252.41;2612952;36;20034;-55
2022/11/22 09:08:42;;;;;;;7.65;3.55;;;;;;;6.61;100.00;99250.88;2613198;36;20035;-54
2022/11/22 09:11:13;;;;;;;16.53;4.73;;;;;;;6.75;100.00;99252.22;2605511;36;20042;-57
2022/11/22 09:13:44;;;;;;;11.75;4.40;;;;;;;6.78;100.00;99263.44;2607201;36;20304;-56
2022/11/22 09:16:15;;;;;;;10.05;4.07;;;;;;;6.83;100.00;99265.66;2625681;36;20034;-49
2022/11/22 09:18:44;;;;;;;12.68;3.75;;;;;;;6.76;100.00;99267.28;2606266;36;20038;-54
2022/11/22 09:21:16;;;;;;;9.02;3.10;;;;;;;6.74;100.00;99278.09;2605930;36;20460;-55
2022/11/22 09:23:45;;;;;;;11.63;3.97;;;;;;;6.73;100.00;99275.56;2607208;31;20041;-52
2022/11/22 09:26:17;;;;;;;10.75;4.03;;;;;;;6.66;100.00;99278.84;2604668;36;20867;-54
2022/11/22 09:28:48;;;;;;;12.98;4.15;;;;;;;6.79;100.00;99275.81;2605768;36;20038;-54
2022/11/22 09:31:19;;;;;;;10.65;5.38;;;;;;;6.88;100.00;99279.44;2608103;36;20034;-53
2022/11/22 09:33:48;;;;;;;13.48;3.95;;;;;;;6.68;100.00;99280.53;2606188;36;20034;-56
2022/11/22 09:36:18;;;;;;;9.65;3.40;;;;;;;6.77;100.00;99276.97;2605512;36;20034;-56
2022/11/22 09:38:48;;;;;;;12.15;3.88;;;;;;;7.03;100.00;99281.59;2607370;31;20089;-53
2022/11/22 09:41:28;;;;;;;14.85;3.95;;;;;;;6.97;100.00;99278.50;2605936;36;20645;-51
2022/11/22 09:44:03;;;;;;;14.70;4.60;;;;;;;6.91;100.00;99276.44;2606624;36;20042;-59
2022/11/22 09:46:41;;;;;;;10.70;4.18;;;;;;;7.04;100.00;99278.75;2608395;36;20035;-53
2022/11/22 09:49:36;;;;;;;10.95;2.90;;;;;;;7.03;100.00;99271.72;2607362;36;20570;-53
2022/11/22 09:52:09;;;;;;;11.70;4.07;;;;;;;7.01;100.00;99263.84;2606252;36;20065;-52
2022/11/22 09:54:46;;;;;;;14.15;3.42;;;;;;;7.13;100.00;99277.00;2601048;36;20642;-52
2022/11/22 09:57:20;;;;;;;11.07;4.00;;;;;;;7.01;100.00;99274.53;2610581;36;20578;-54
2022/11/22 09:59:59;;;;;;;10.70;3.70;;;;;;;7.06;100.00;99276.75;2607802;36;20063;-51
2022/11/22 10:02:35;;;;;;;15.65;3.97;;;;;;;6.91;100.00;99287.16;2615285;31;20038;-54
2022/11/22 10:05:07;;;;;;;10.93;3.13;;;;;;;7.05;100.00;99282.25;2615501;36;20065;-53
2022/11/22 10:07:39;;;;;;;10.93;3.15;;;;;;;7.04;100.00;99283.25;2614779;36;20038;-53
2022/11/22 10:10:13;;;;;;;10.07;3.42;;;;;;;7.24;100.00;99282.09;2616028;36;20444;-54
2022/11/22 10:12:46;;;;;;;15.45;3.83;;;;;;;7.23;100.00;99277.75;2615473;36;20043;-55
2022/11/22 10:15:33;;;;;;;11.65;3.80;;;;;;;7.30;100.00;99273.47;2614822;36;20084;-54
2022/11/22 10:18:03;;;;;;;11.18;3.85;;;;;;;7.32;100.00;99276.00;2615440;31;20037;-53
2022/11/22 10:20:42;;;;;;;7.63;2.85;;;;;;;7.28;100.00;99278.13;2615772;31;20068;-52
2022/11/22 10:23:18;;;;;;;9.00;3.00;;;;;;;7.36;100.00;99275.53;2616422;36;20754;-52
2022/11/22 10:25:50;;;;;;;11.23;3.80;;;;;;;7.40;100.00;99278.72;2614567;36;20030;-53
2022/11/22 10:28:22;;;;;;;7.80;2.88;;;;;;;7.64;100.00;99274.56;2614999;36;20042;-57
2022/11/22 10:31:00;;;;;;;12.05;3.20;;;;;;;7.69;100.00;99275.78;2611262;36;20042;-56
2022/11/22 10:33:36;;;;;;;10.90;3.75;;;;;;;7.44;100.00;99263.22;2607999;36;20034;-55
2022/11/22 10:36:22;;;;;;;9.00;3.05;;;;;;;7.49;100.00;99271.59;2607243;31;20041;-55
2022/11/22 10:39:08;;;;;;;8.90;3.40;;;;;;;7.76;100.00;99267.09;2608042;36;20042;-54
2022/11/22 10:41:48;;;;;;;8.40;3.65;;;;;;;7.48;100.00;99269.91;2608523;36;20654;-56
2022/11/22 10:44:26;;;;;;;14.93;4.55;;;;;;;7.47;100.00;99265.59;2615154;36;20038;-55
2022/11/22 10:47:08;;;;;;;9.07;3.35;;;;;;;7.65;100.00;99266.38;2615111;36;20197;-55
2022/11/22 10:49:47;;;;;;;8.75;3.38;;;;;;;7.53;100.00;99271.13;2615006;36;20029;-50
2022/11/22 10:52:25;;;;;;;10.07;3.35;;;;;;;7.53;100.00;99256.91;2614855;36;20031;-52
2022/11/22 10:55:03;;;;;;;18.30;3.33;;;;;;;7.72;100.00;99262.06;2614651;36;20034;-54
2022/11/22 10:57:39;;;;;;;15.90;4.80;;;;;;;7.53;100.00;99251.56;2613140;36;20042;-52
2022/11/22 11:00:23;;;;;;;10.80;3.40;;;;;;;7.45;100.00;99248.81;2601931;36;20065;-56
2022/11/22 11:03:12;;;;;;;10.23;2.78;;;;;;;7.70;100.00;99258.72;2608303;36;20030;-54
2022/11/22 11:05:48;;;;;;;8.00;3.13;;;;;;;7.68;100.00;99247.31;2607402;36;20034;-57
2022/11/22 11:08:23;;;;;;;11.57;3.90;;;;;;;7.62;100.00;99249.78;2601002;36;21294;-55
2022/11/22 11:10:51;;;;;;;9.27;3.80;;;;;;;7.61;100.00;99256.13;2607047;36;20051;-52
2022/11/22 11:13:25;;;;;;;8.02;4.00;;;;;;;7.81;100.00;99251.41;2607553;36;20893;-56
2022/11/22 11:15:58;;;;;;;10.77;3.97;;;;;;;7.66;100.00;99243.97;2604947;36;20065;-53
2022/11/22 11:18:35;;;;;;;7.55;3.22;;;;;;;7.69;100.00;99246.31;2605988;36;20072;-56
2022/11/22 11:21:04;;;;;;;13.00;4.65;;;;;;;7.54;100.00;99234.53;2605981;36;20039;-53
2022/11/22 11:23:32;;;;;;;9.52;3.78;;;;;;;7.81;100.00;99241.53;2608099;36;20041;-54
2022/11/22 11:26:19;;;;;;;7.15;3.10;;;;;;;7.88;100.00;99244.44;2607739;31;20412;-52
2022/11/22 11:28:48;;;;;;;10.50;4.47;;;;;;;8.26;100.00;99231.56;2607136;36;20064;-57
2022/11/22 11:31:17;;;;;;;10.73;3.08;;;;;;;8.12;100.00;99240.22;2608521;36;20038;-55
2022/11/22 11:33:48;;;;;;;;;;;;;;;8.11;100.00;99238.50;2608985;36;20039;-53
2022/11/22 11:36:20;;;;;;;11.80;3.25;;;;;;;8.03;100.00;99226.75;2609317;31;19977;-56
2022/11/22 11:38:57;;;;;;;10.07;2.58;;;;;;;8.17;100.00;99227.16;2607680;36;20057;-57
2022/11/22 11:41:30;;;;;;;13.48;2.72;;;;;;;8.09;100.00;99229.81;2606865;36;20065;-56
2022/11/22 11:44:00;;;;;;;12.88;3.72;;;;;;;8.11;100.00;99228.63;2607052;36;21615;-54
2022/11/22 11:46:30;;;;;;;8.07;2.80;;;;;;;8.62;100.00;99230.53;2607953;36;20038;-55
2022/11/22 11:49:10;;;;;;;;;;;;;;;8.58;100.00;99221.97;2607415;36;20543;-55
2022/11/22 11:51:41;;;;;;;9.43;2.90;;;;;;;8.77;100.00;99221.69;2607805;36;20466;-59
2022/11/22 11:54:15;;;;;;;8.55;3.10;;;;;;;8.52;100.00;99220.78;2606247;36;20037;-56